PDT,Max TemperatureF,Mean TemperatureF,Min TemperatureF,Max Dew PointF,MeanDew PointF,Min DewpointF,Max Humidity, Mean Humidity, Min Humidity, Max Sea Level PressureIn, Mean Sea Level PressureIn, Min Sea Level PressureIn, Max VisibilityMiles, Mean VisibilityMiles, Min VisibilityMiles, Max Wind SpeedMPH, Mean Wind SpeedMPH, Max Gust SpeedMPH,PrecipitationIn, CloudCover, Events, WindDirDegrees
2013-7-1,87,73,58,68,60,57,100,62,36,30.12,30.02,29.91,15,15,15,16,10,,1.06,2,,2
2013-7-2,98,78,57,64,61,57,100,58,24,30.20,29.95,29.78,15,15,15,14,5,18,0.98,1,,191
2013-7-3,93,74,55,61,52,46,100,46,21,30.17,29.93,29.81,15,15,15,13,6,,0.00,0,,33
2013-7-4,89,72,55,66,53,46,99,53,22,30.11,29.84,29.71,15,15,15,12,5,17,0.00,2,,188
2013-7-5,75,68,61,67,55,50,92,63,39,30.06,29.85,29.75,15,15,15,10,5,,0.00,5,Rain-Thunderstorm,55
2013-7-6,82,71,60,68,52,43,94,61,25,29.98,29.92,29.81,15,15,15,9,4,,0.00,5,Rain,7
2013-7-7,82,70,59,62,50,45,87,50,30,29.95,29.88,29.80,15,15,15,10,6,,0.00,4,,8
2013-7-8,77,68,60,70,56,52,95,63,41,30.05,29.98,29.94,15,15,15,14,6,23,0.39,4,Rain,15
2013-7-9,89,70,50,64,53,48,100,53,25,30.19,30.07,29.96,15,15,15,10,5,,0.00,2,Fog,185
2013-7-10,93,74,55,63,53,45,98,52,19,30.04,29.84,29.65,15,15,15,18,7,26,0.00,1,,186
2013-7-11,84,72,59,65,43,27,98,42,12,29.94,29.77,29.71,15,15,15,16,8,24,0.00,3,,246
2013-7-12,81,66,50,65,45,34,96,51,25,30.20,29.94,29.87,15,15,15,15,6,21,0.02,6,,4
2013-7-13,80,70,58,62,47,37,91,48,23,30.30,30.12,30.04,15,15,15,9,3,,0.00,2,,203
2013-7-14,86,72,57,62,47,39,97,50,20,30.27,30.04,29.86,15,15,15,14,5,23,0.00,1,,197
2013-7-15,79,68,57,64,48,43,99,46,29,30.13,30.01,29.97,15,15,15,16,10,23,0.00,1,,349
2013-7-16,90,75,60,67,52,45,73,46,29,30.17,30.01,29.88,15,15,15,12,8,21,0.00,1,,358
2013-7-17,75,69,62,64,59,52,95,73,53,30.21,30.06,29.94,15,15,10,15,10,29,0.20,5,Rain-Thunderstorm,354
2013-7-18,84,70,55,63,57,54,98,62,37,30.21,30.09,29.94,15,15,15,9,6,,0.20,2,,353
2013-7-19,93,76,60,65,56,45,97,59,19,30.12,29.95,29.68,15,15,15,17,5,,0.00,1,,330
2013-7-20,95,78,61,67,53,36,96,53,12,29.96,29.80,29.67,15,15,15,13,6,,0.00,1,,196
2013-7-21,95,76,56,55,51,46,82,43,22,30.03,29.79,29.68,15,15,15,14,6,,0.00,1,,176
2013-7-22,93,74,54,61,55,48,89,47,20,30.06,29.84,29.78,15,15,15,14,5,,0.00,1,,266
2013-7-23,96,79,62,67,55,46,98,51,18,30.01,29.89,29.60,15,15,15,15,6,,0.20,0,,199
2013-7-24,96,78,60,64,54,43,99,53,16,29.99,29.88,29.65,15,15,15,9,3,,0.83,1,,232
2013-7-25,96,74,53,67,52,41,98,46,14,30.09,29.96,29.88,15,15,15,13,6,,0.63,0,,187
2013-7-26,96,80,60,71,50,37,98,47,13,30.04,29.94,29.83,15,15,15,20,8,,0.00,1,,177
2013-7-27,86,72,57,62,47,41,96,45,20,30.06,29.91,29.83,15,15,15,14,9,23,0.00,1,,358
2013-7-28,84,71,58,68,48,41,99,46,23,30.08,29.89,29.80,15,15,15,13,6,18,0.03,2,,3
2013-7-29,82,70,59,63,50,45,98,51,26,30.07,29.92,29.85,15,15,15,14,6,,0.00,2,Thunderstorm,175
2013-7-30,87,72,57,65,47,37,100,50,18,30.11,30.05,29.99,15,15,15,9,5,,0.03,2,,301
2013-7-31,87,70,54,59,50,43,94,50,20,30.19,30.06,29.94,15,15,15,8,3,,0.00,5,,22